Richmond, Virginia
Current Conditions -  °F | °C
As of 7:54 AM on Sunday 23 Nov 2014 (Local Time) from KRIC Reporting Station
Overcast Overcast  
Wind Chill: 36°   Ceiling: 25000
Heat Index: 40°   Visibility: 10mi
Dew Point: 24°   Wind: 6mph
Humidity: 53%   Direction: 140°SE
Pressure: 30.25"   Gusts: NA
Location:  37.54°N, 77.43°W
Report Text: KRIC 231254Z 14005KT 10SM SCT180 OVC250 04/M04 A3025 RMK AO2 SLP249 T00441044
Loading
Personal Weather Stations






























Interactive Weather Map New forecast layout! Learn more

10-Day Weather Forecast

Advertisements
Track Severe Weather on mobile